sensor_id;sensor_type;location;lat;lon;timestamp;P1;durP1;ratioP1;P2;durP2;ratioP2
81310;SDS011;70779;52.506;5.492;2023-07-31T00:00:35;2.13;;;0.30;;
81310;SDS011;70779;52.506;5.492;2023-07-31T00:03:01;2.53;;;0.47;;
81310;SDS011;70779;52.506;5.492;2023-07-31T00:05:28;0.63;;;0.30;;
81310;SDS011;70779;52.506;5.492;2023-07-31T00:07:54;1.73;;;0.60;;
81310;SDS011;70779;52.506;5.492;2023-07-31T00:10:20;0.70;;;0.40;;
81310;SDS011;70779;52.506;5.492;2023-07-31T00:12:46;2.45;;;0.50;;
81310;SDS011;70779;52.506;5.492;2023-07-31T00:15:13;1.00;;;0.45;;
81310;SDS011;70779;52.506;5.492;2023-07-31T00:17:40;2.30;;;0.82;;
81310;SDS011;70779;52.506;5.492;2023-07-31T00:20:06;1.40;;;0.65;;
81310;SDS011;70779;52.506;5.492;2023-07-31T00:22:33;0.95;;;0.52;;
81310;SDS011;70779;52.506;5.492;2023-07-31T00:24:59;3.40;;;0.98;;
81310;SDS011;70779;52.506;5.492;2023-07-31T00:27:25;1.02;;;0.60;;
81310;SDS011;70779;52.506;5.492;2023-07-31T00:29:51;3.28;;;0.60;;
81310;SDS011;70779;52.506;5.492;2023-07-31T00:32:17;3.47;;;0.52;;
81310;SDS011;70779;52.506;5.492;2023-07-31T00:34:44;2.55;;;0.80;;
81310;SDS011;70779;52.506;5.492;2023-07-31T00:37:11;4.97;;;0.70;;
81310;SDS011;70779;52.506;5.492;2023-07-31T00:39:37;2.72;;;0.88;;
81310;SDS011;70779;52.506;5.492;2023-07-31T00:42:03;2.03;;;0.60;;
81310;SDS011;70779;52.506;5.492;2023-07-31T00:44:29;3.30;;;0.77;;
81310;SDS011;70779;52.506;5.492;2023-07-31T00:46:55;3.10;;;0.93;;
81310;SDS011;70779;52.506;5.492;2023-07-31T00:49:23;4.68;;;0.77;;
81310;SDS011;70779;52.506;5.492;2023-07-31T00:51:49;3.13;;;0.63;;
81310;SDS011;70779;52.506;5.492;2023-07-31T00:54:17;5.35;;;1.00;;
81310;SDS011;70779;52.506;5.492;2023-07-31T00:56:44;2.47;;;0.93;;
81310;SDS011;70779;52.506;5.492;2023-07-31T00:59:12;5.78;;;1.13;;
81310;SDS011;70779;52.506;5.492;2023-07-31T01:01:38;6.72;;;1.02;;
81310;SDS011;70779;52.506;5.492;2023-07-31T01:04:04;5.13;;;1.38;;
81310;SDS011;70779;52.506;5.492;2023-07-31T01:06:36;4.97;;;1.70;;
81310;SDS011;70779;52.506;5.492;2023-07-31T01:09:30;9.68;;;2.30;;
81310;SDS011;70779;52.506;5.492;2023-07-31T01:12:22;9.23;;;3.38;;
81310;SDS011;70779;52.506;5.492;2023-07-31T01:15:06;8.18;;;2.28;;
81310;SDS011;70779;52.506;5.492;2023-07-31T01:17:36;7.15;;;1.98;;
81310;SDS011;70779;52.506;5.492;2023-07-31T01:20:05;11.75;;;3.25;;
81310;SDS011;70779;52.506;5.492;2023-07-31T01:22:45;9.88;;;2.20;;
81310;SDS011;70779;52.506;5.492;2023-07-31T01:27:53;10.98;;;2.35;;
81310;SDS011;70779;52.506;5.492;2023-07-31T01:30:33;8.77;;;2.08;;
81310;SDS011;70779;52.506;5.492;2023-07-31T01:33:02;12.48;;;3.42;;
81310;SDS011;70779;52.506;5.492;2023-07-31T01:35:35;8.95;;;2.50;;
81310;SDS011;70779;52.506;5.492;2023-07-31T01:38:02;6.85;;;2.05;;
81310;SDS011;70779;52.506;5.492;2023-07-31T01:40:30;10.45;;;2.55;;
81310;SDS011;70779;52.506;5.492;2023-07-31T01:42:56;7.05;;;2.03;;
81310;SDS011;70779;52.506;5.492;2023-07-31T01:45:22;8.10;;;2.58;;
81310;SDS011;70779;52.506;5.492;2023-07-31T01:47:48;10.13;;;2.15;;
81310;SDS011;70779;52.506;5.492;2023-07-31T01:50:14;7.82;;;2.03;;
81310;SDS011;70779;52.506;5.492;2023-07-31T01:52:41;13.25;;;2.55;;
81310;SDS011;70779;52.506;5.492;2023-07-31T01:55:08;4.95;;;2.30;;
81310;SDS011;70779;52.506;5.492;2023-07-31T01:57:36;9.88;;;2.42;;
81310;SDS011;70779;52.506;5.492;2023-07-31T02:00:03;9.18;;;2.28;;
81310;SDS011;70779;52.506;5.492;2023-07-31T02:02:37;8.45;;;2.53;;
81310;SDS011;70779;52.506;5.492;2023-07-31T02:05:03;8.98;;;2.65;;
81310;SDS011;70779;52.506;5.492;2023-07-31T02:07:30;14.40;;;3.80;;
81310;SDS011;70779;52.506;5.492;2023-07-31T02:09:56;12.45;;;2.90;;
81310;SDS011;70779;52.506;5.492;2023-07-31T02:12:23;13.00;;;3.10;;
81310;SDS011;70779;52.506;5.492;2023-07-31T02:14:49;16.42;;;3.00;;
81310;SDS011;70779;52.506;5.492;2023-07-31T02:17:15;15.07;;;2.55;;
81310;SDS011;70779;52.506;5.492;2023-07-31T02:19:41;13.70;;;2.65;;
81310;SDS011;70779;52.506;5.492;2023-07-31T02:22:07;12.80;;;3.05;;
81310;SDS011;70779;52.506;5.492;2023-07-31T02:24:33;6.20;;;1.90;;
81310;SDS011;70779;52.506;5.492;2023-07-31T02:26:59;9.75;;;2.15;;
81310;SDS011;70779;52.506;5.492;2023-07-31T02:29:25;11.93;;;2.78;;
81310;SDS011;70779;52.506;5.492;2023-07-31T02:31:51;7.85;;;2.25;;
81310;SDS011;70779;52.506;5.492;2023-07-31T02:34:17;9.95;;;2.65;;
81310;SDS011;70779;52.506;5.492;2023-07-31T02:36:43;15.07;;;3.20;;
81310;SDS011;70779;52.506;5.492;2023-07-31T02:39:09;13.43;;;3.33;;
81310;SDS011;70779;52.506;5.492;2023-07-31T02:41:35;13.20;;;3.20;;
81310;SDS011;70779;52.506;5.492;2023-07-31T02:44:02;14.48;;;3.83;;
81310;SDS011;70779;52.506;5.492;2023-07-31T02:46:28;18.20;;;3.78;;
81310;SDS011;70779;52.506;5.492;2023-07-31T02:48:54;16.25;;;4.28;;
81310;SDS011;70779;52.506;5.492;2023-07-31T02:51:20;17.52;;;4.07;;
81310;SDS011;70779;52.506;5.492;2023-07-31T02:53:47;19.30;;;4.32;;
81310;SDS011;70779;52.506;5.492;2023-07-31T02:56:13;14.45;;;3.80;;
81310;SDS011;70779;52.506;5.492;2023-07-31T02:58:39;16.70;;;3.17;;
81310;SDS011;70779;52.506;5.492;2023-07-31T03:01:05;21.70;;;4.75;;
81310;SDS011;70779;52.506;5.492;2023-07-31T03:03:31;16.25;;;3.78;;
81310;SDS011;70779;52.506;5.492;2023-07-31T03:05:58;12.85;;;3.75;;
81310;SDS011;70779;52.506;5.492;2023-07-31T03:08:24;18.02;;;5.13;;
81310;SDS011;70779;52.506;5.492;2023-07-31T03:10:50;22.08;;;4.30;;
81310;SDS011;70779;52.506;5.492;2023-07-31T03:13:16;16.88;;;4.15;;
81310;SDS011;70779;52.506;5.492;2023-07-31T03:15:42;16.38;;;3.83;;
81310;SDS011;70779;52.506;5.492;2023-07-31T03:18:09;18.33;;;6.05;;
81310;SDS011;70779;52.506;5.492;2023-07-31T03:20:35;15.00;;;4.22;;
81310;SDS011;70779;52.506;5.492;2023-07-31T03:23:01;13.88;;;4.13;;
81310;SDS011;70779;52.506;5.492;2023-07-31T03:25:27;17.85;;;4.88;;
81310;SDS011;70779;52.506;5.492;2023-07-31T03:27:54;17.77;;;3.88;;
81310;SDS011;70779;52.506;5.492;2023-07-31T03:30:20;17.42;;;4.40;;
81310;SDS011;70779;52.506;5.492;2023-07-31T03:32:46;17.77;;;4.63;;
81310;SDS011;70779;52.506;5.492;2023-07-31T03:35:12;23.63;;;4.68;;
81310;SDS011;70779;52.506;5.492;2023-07-31T03:37:38;19.83;;;4.35;;
81310;SDS011;70779;52.506;5.492;2023-07-31T03:40:04;12.57;;;3.67;;
81310;SDS011;70779;52.506;5.492;2023-07-31T03:42:30;17.60;;;4.43;;
81310;SDS011;70779;52.506;5.492;2023-07-31T03:44:57;15.98;;;4.40;;
81310;SDS011;70779;52.506;5.492;2023-07-31T03:47:23;17.98;;;4.75;;
81310;SDS011;70779;52.506;5.492;2023-07-31T03:49:49;15.00;;;4.35;;
81310;SDS011;70779;52.506;5.492;2023-07-31T03:52:15;21.70;;;4.32;;
81310;SDS011;70779;52.506;5.492;2023-07-31T03:54:41;16.48;;;4.95;;
81310;SDS011;70779;52.506;5.492;2023-07-31T03:57:10;19.42;;;4.60;;
81310;SDS011;70779;52.506;5.492;2023-07-31T03:59:37;16.85;;;4.50;;
81310;SDS011;70779;52.506;5.492;2023-07-31T04:02:04;20.77;;;4.60;;
81310;SDS011;70779;52.506;5.492;2023-07-31T04:04:31;21.40;;;4.65;;
81310;SDS011;70779;52.506;5.492;2023-07-31T04:06:57;21.90;;;4.55;;
81310;SDS011;70779;52.506;5.492;2023-07-31T04:09:23;27.33;;;4.80;;
81310;SDS011;70779;52.506;5.492;2023-07-31T04:11:49;26.35;;;4.75;;
81310;SDS011;70779;52.506;5.492;2023-07-31T04:14:15;14.23;;;4.30;;
81310;SDS011;70779;52.506;5.492;2023-07-31T04:16:41;27.45;;;4.70;;
81310;SDS011;70779;52.506;5.492;2023-07-31T04:19:07;22.88;;;5.32;;
81310;SDS011;70779;52.506;5.492;2023-07-31T04:21:34;20.95;;;4.93;;
81310;SDS011;70779;52.506;5.492;2023-07-31T04:24:00;21.52;;;5.00;;
81310;SDS011;70779;52.506;5.492;2023-07-31T04:26:26;20.73;;;5.30;;
81310;SDS011;70779;52.506;5.492;2023-07-31T04:28:52;22.50;;;4.22;;
81310;SDS011;70779;52.506;5.492;2023-07-31T04:31:18;20.58;;;4.75;;
81310;SDS011;70779;52.506;5.492;2023-07-31T04:33:44;15.90;;;4.38;;
81310;SDS011;70779;52.506;5.492;2023-07-31T04:36:10;21.95;;;5.18;;
81310;SDS011;70779;52.506;5.492;2023-07-31T04:38:36;16.58;;;3.90;;
81310;SDS011;70779;52.506;5.492;2023-07-31T04:41:02;33.92;;;5.20;;
81310;SDS011;70779;52.506;5.492;2023-07-31T04:43:29;23.00;;;5.18;;
81310;SDS011;70779;52.506;5.492;2023-07-31T04:45:55;15.45;;;4.82;;
81310;SDS011;70779;52.506;5.492;2023-07-31T04:48:21;19.98;;;4.75;;
81310;SDS011;70779;52.506;5.492;2023-07-31T04:50:47;20.33;;;5.03;;
81310;SDS011;70779;52.506;5.492;2023-07-31T04:53:13;18.40;;;4.90;;
81310;SDS011;70779;52.506;5.492;2023-07-31T04:55:39;27.08;;;5.78;;
81310;SDS011;70779;52.506;5.492;2023-07-31T04:58:06;19.23;;;5.53;;
81310;SDS011;70779;52.506;5.492;2023-07-31T05:00:32;20.30;;;4.65;;
81310;SDS011;70779;52.506;5.492;2023-07-31T05:02:58;24.25;;;5.28;;
81310;SDS011;70779;52.506;5.492;2023-07-31T05:05:24;22.67;;;4.63;;
81310;SDS011;70779;52.506;5.492;2023-07-31T05:07:50;19.83;;;4.30;;
81310;SDS011;70779;52.506;5.492;2023-07-31T05:10:16;18.60;;;5.53;;
81310;SDS011;70779;52.506;5.492;2023-07-31T05:12:42;22.65;;;5.65;;
81310;SDS011;70779;52.506;5.492;2023-07-31T05:15:09;19.20;;;4.68;;
81310;SDS011;70779;52.506;5.492;2023-07-31T05:17:35;17.60;;;4.03;;
81310;SDS011;70779;52.506;5.492;2023-07-31T05:20:01;26.50;;;5.10;;
81310;SDS011;70779;52.506;5.492;2023-07-31T05:22:27;20.92;;;5.07;;
81310;SDS011;70779;52.506;5.492;2023-07-31T05:24:53;23.13;;;5.15;;
81310;SDS011;70779;52.506;5.492;2023-07-31T05:27:19;17.05;;;4.18;;
81310;SDS011;70779;52.506;5.492;2023-07-31T05:29:46;21.17;;;5.15;;
81310;SDS011;70779;52.506;5.492;2023-07-31T05:32:12;15.52;;;4.07;;
81310;SDS011;70779;52.506;5.492;2023-07-31T05:34:38;19.42;;;3.67;;
81310;SDS011;70779;52.506;5.492;2023-07-31T05:37:04;19.70;;;4.75;;
81310;SDS011;70779;52.506;5.492;2023-07-31T05:39:31;18.63;;;4.05;;
81310;SDS011;70779;52.506;5.492;2023-07-31T05:41:57;14.48;;;4.85;;
81310;SDS011;70779;52.506;5.492;2023-07-31T05:44:23;19.42;;;3.92;;
81310;SDS011;70779;52.506;5.492;2023-07-31T05:46:49;19.92;;;4.72;;
81310;SDS011;70779;52.506;5.492;2023-07-31T05:49:15;14.77;;;4.22;;
81310;SDS011;70779;52.506;5.492;2023-07-31T05:51:41;15.88;;;4.45;;
81310;SDS011;70779;52.506;5.492;2023-07-31T05:54:07;20.58;;;4.53;;
81310;SDS011;70779;52.506;5.492;2023-07-31T05:56:34;12.25;;;3.15;;
81310;SDS011;70779;52.506;5.492;2023-07-31T05:59:00;11.38;;;3.22;;
81310;SDS011;70779;52.506;5.492;2023-07-31T06:01:26;9.57;;;2.83;;
81310;SDS011;70779;52.506;5.492;2023-07-31T06:03:52;7.05;;;2.42;;
81310;SDS011;70779;52.506;5.492;2023-07-31T06:06:18;7.75;;;2.72;;
81310;SDS011;70779;52.506;5.492;2023-07-31T06:08:44;7.53;;;2.22;;
81310;SDS011;70779;52.506;5.492;2023-07-31T06:11:10;7.45;;;2.10;;
81310;SDS011;70779;52.506;5.492;2023-07-31T06:13:37;7.78;;;1.90;;
81310;SDS011;70779;52.506;5.492;2023-07-31T06:16:03;4.82;;;1.70;;
81310;SDS011;70779;52.506;5.492;2023-07-31T06:18:32;11.05;;;2.33;;
81310;SDS011;70779;52.506;5.492;2023-07-31T06:20:58;5.35;;;1.90;;
81310;SDS011;70779;52.506;5.492;2023-07-31T06:23:25;3.88;;;1.40;;
81310;SDS011;70779;52.506;5.492;2023-07-31T06:25:51;2.35;;;1.27;;
81310;SDS011;70779;52.506;5.492;2023-07-31T06:28:17;3.58;;;1.55;;
81310;SDS011;70779;52.506;5.492;2023-07-31T06:30:43;3.05;;;1.30;;
81310;SDS011;70779;52.506;5.492;2023-07-31T06:33:09;3.90;;;1.40;;
81310;SDS011;70779;52.506;5.492;2023-07-31T06:35:35;3.67;;;1.30;;
81310;SDS011;70779;52.506;5.492;2023-07-31T06:38:01;3.20;;;1.25;;
81310;SDS011;70779;52.506;5.492;2023-07-31T06:40:28;1.90;;;1.05;;
81310;SDS011;70779;52.506;5.492;2023-07-31T06:42:55;3.20;;;1.20;;
81310;SDS011;70779;52.506;5.492;2023-07-31T06:45:21;2.97;;;1.25;;
81310;SDS011;70779;52.506;5.492;2023-07-31T06:47:47;2.75;;;1.25;;
81310;SDS011;70779;52.506;5.492;2023-07-31T06:50:13;3.35;;;1.23;;
81310;SDS011;70779;52.506;5.492;2023-07-31T06:52:42;3.45;;;1.35;;
81310;SDS011;70779;52.506;5.492;2023-07-31T06:55:18;3.90;;;1.20;;
81310;SDS011;70779;52.506;5.492;2023-07-31T06:57:46;3.28;;;1.42;;
81310;SDS011;70779;52.506;5.492;2023-07-31T07:00:13;2.38;;;1.13;;
81310;SDS011;70779;52.506;5.492;2023-07-31T07:02:40;3.50;;;1.35;;
81310;SDS011;70779;52.506;5.492;2023-07-31T07:05:07;3.40;;;1.27;;
81310;SDS011;70779;52.506;5.492;2023-07-31T07:07:34;3.70;;;1.33;;
81310;SDS011;70779;52.506;5.492;2023-07-31T07:10:00;2.05;;;0.88;;
81310;SDS011;70779;52.506;5.492;2023-07-31T07:12:29;5.25;;;1.08;;
81310;SDS011;70779;52.506;5.492;2023-07-31T07:14:57;2.17;;;1.00;;
81310;SDS011;70779;52.506;5.492;2023-07-31T07:17:23;1.85;;;1.08;;
81310;SDS011;70779;52.506;5.492;2023-07-31T07:19:50;4.20;;;1.17;;
81310;SDS011;70779;52.506;5.492;2023-07-31T07:22:16;2.33;;;1.00;;
81310;SDS011;70779;52.506;5.492;2023-07-31T07:24:43;1.33;;;0.73;;
81310;SDS011;70779;52.506;5.492;2023-07-31T07:27:09;3.17;;;0.73;;
81310;SDS011;70779;52.506;5.492;2023-07-31T07:29:35;2.85;;;0.75;;
81310;SDS011;70779;52.506;5.492;2023-07-31T07:32:01;2.42;;;0.82;;
81310;SDS011;70779;52.506;5.492;2023-07-31T07:34:27;1.73;;;0.88;;
81310;SDS011;70779;52.506;5.492;2023-07-31T07:36:54;4.22;;;1.00;;
81310;SDS011;70779;52.506;5.492;2023-07-31T07:39:20;2.22;;;0.75;;
81310;SDS011;70779;52.506;5.492;2023-07-31T07:41:47;1.83;;;0.70;;
81310;SDS011;70779;52.506;5.492;2023-07-31T07:44:13;1.15;;;0.52;;
81310;SDS011;70779;52.506;5.492;2023-07-31T07:46:40;1.77;;;0.75;;
81310;SDS011;70779;52.506;5.492;2023-07-31T07:49:06;1.30;;;0.82;;
81310;SDS011;70779;52.506;5.492;2023-07-31T07:51:32;1.83;;;0.43;;
81310;SDS011;70779;52.506;5.492;2023-07-31T07:53:58;3.08;;;0.75;;
81310;SDS011;70779;52.506;5.492;2023-07-31T07:56:25;1.10;;;0.60;;
81310;SDS011;70779;52.506;5.492;2023-07-31T07:58:52;2.00;;;0.65;;
81310;SDS011;70779;52.506;5.492;2023-07-31T08:01:19;3.95;;;0.85;;
81310;SDS011;70779;52.506;5.492;2023-07-31T08:03:45;0.90;;;0.43;;
81310;SDS011;70779;52.506;5.492;2023-07-31T08:06:12;0.77;;;0.22;;
81310;SDS011;70779;52.506;5.492;2023-07-31T08:08:38;0.80;;;0.40;;
81310;SDS011;70779;52.506;5.492;2023-07-31T08:11:04;1.02;;;0.45;;
81310;SDS011;70779;52.506;5.492;2023-07-31T08:13:31;1.38;;;0.60;;
81310;SDS011;70779;52.506;5.492;2023-07-31T08:15:57;0.98;;;0.43;;
81310;SDS011;70779;52.506;5.492;2023-07-31T08:18:23;0.47;;;0.32;;
81310;SDS011;70779;52.506;5.492;2023-07-31T08:20:49;1.23;;;0.40;;
81310;SDS011;70779;52.506;5.492;2023-07-31T08:23:15;1.08;;;0.40;;
81310;SDS011;70779;52.506;5.492;2023-07-31T08:25:41;0.80;;;0.52;;
81310;SDS011;70779;52.506;5.492;2023-07-31T08:28:07;1.17;;;0.50;;
81310;SDS011;70779;52.506;5.492;2023-07-31T08:30:34;1.65;;;0.55;;
81310;SDS011;70779;52.506;5.492;2023-07-31T08:33:00;0.90;;;0.32;;
81310;SDS011;70779;52.506;5.492;2023-07-31T08:35:26;1.95;;;0.77;;
81310;SDS011;70779;52.506;5.492;2023-07-31T08:37:55;0.65;;;0.32;;
81310;SDS011;70779;52.506;5.492;2023-07-31T08:40:21;0.73;;;0.40;;
81310;SDS011;70779;52.506;5.492;2023-07-31T08:42:48;0.90;;;0.43;;
81310;SDS011;70779;52.506;5.492;2023-07-31T08:45:16;0.55;;;0.40;;
81310;SDS011;70779;52.506;5.492;2023-07-31T08:47:47;0.60;;;0.30;;
81310;SDS011;70779;52.506;5.492;2023-07-31T08:50:16;1.02;;;0.38;;
81310;SDS011;70779;52.506;5.492;2023-07-31T08:52:48;0.55;;;0.30;;
81310;SDS011;70779;52.506;5.492;2023-07-31T08:55:15;0.88;;;0.70;;
81310;SDS011;70779;52.506;5.492;2023-07-31T08:57:42;0.40;;;0.22;;
81310;SDS011;70779;52.506;5.492;2023-07-31T09:00:09;0.40;;;0.13;;
81310;SDS011;70779;52.506;5.492;2023-07-31T09:02:54;0.95;;;0.22;;
81310;SDS011;70779;52.506;5.492;2023-07-31T09:05:25;0.38;;;0.20;;
81310;SDS011;70779;52.506;5.492;2023-07-31T09:07:52;0.30;;;0.17;;
81310;SDS011;70779;52.506;5.492;2023-07-31T09:10:20;0.20;;;0.20;;
81310;SDS011;70779;52.506;5.492;2023-07-31T09:12:46;0.70;;;0.25;;
81310;SDS011;70779;52.506;5.492;2023-07-31T09:15:14;0.43;;;0.22;;
81310;SDS011;70779;52.506;5.492;2023-07-31T09:17:40;0.25;;;0.20;;
81310;SDS011;70779;52.506;5.492;2023-07-31T09:20:13;0.40;;;0.28;;
81310;SDS011;70779;52.506;5.492;2023-07-31T09:22:44;0.20;;;0.20;;
81310;SDS011;70779;52.506;5.492;2023-07-31T09:25:21;0.77;;;0.28;;
81310;SDS011;70779;52.506;5.492;2023-07-31T09:27:58;1.25;;;0.30;;
81310;SDS011;70779;52.506;5.492;2023-07-31T09:30:25;0.70;;;0.32;;
81310;SDS011;70779;52.506;5.492;2023-07-31T09:33:00;0.93;;;0.30;;
81310;SDS011;70779;52.506;5.492;2023-07-31T09:35:34;0.57;;;0.50;;
81310;SDS011;70779;52.506;5.492;2023-07-31T09:38:05;0.63;;;0.20;;
81310;SDS011;70779;52.506;5.492;2023-07-31T09:40:33;0.52;;;0.13;;
81310;SDS011;70779;52.506;5.492;2023-07-31T09:43:01;0.20;;;0.20;;
81310;SDS011;70779;52.506;5.492;2023-07-31T09:45:29;1.35;;;0.30;;
81310;SDS011;70779;52.506;5.492;2023-07-31T09:47:59;0.32;;;0.30;;
81310;SDS011;70779;52.506;5.492;2023-07-31T09:50:25;0.30;;;0.13;;
81310;SDS011;70779;52.506;5.492;2023-07-31T09:52:52;0.93;;;0.50;;
81310;SDS011;70779;52.506;5.492;2023-07-31T09:55:18;0.55;;;0.10;;
81310;SDS011;70779;52.506;5.492;2023-07-31T09:57:45;0.60;;;0.22;;
81310;SDS011;70779;52.506;5.492;2023-07-31T10:00:14;0.85;;;0.20;;
81310;SDS011;70779;52.506;5.492;2023-07-31T10:02:41;2.65;;;0.22;;
81310;SDS011;70779;52.506;5.492;2023-07-31T10:05:12;2.72;;;0.52;;
81310;SDS011;70779;52.506;5.492;2023-07-31T10:07:41;4.28;;;0.77;;
81310;SDS011;70779;52.506;5.492;2023-07-31T10:10:11;4.63;;;0.75;;
81310;SDS011;70779;52.506;5.492;2023-07-31T10:12:37;3.13;;;0.73;;
81310;SDS011;70779;52.506;5.492;2023-07-31T10:15:04;1.90;;;0.65;;
81310;SDS011;70779;52.506;5.492;2023-07-31T10:17:30;4.05;;;0.75;;
81310;SDS011;70779;52.506;5.492;2023-07-31T10:20:00;5.15;;;0.85;;
81310;SDS011;70779;52.506;5.492;2023-07-31T10:22:33;7.07;;;1.17;;
81310;SDS011;70779;52.506;5.492;2023-07-31T10:25:00;5.70;;;0.90;;
81310;SDS011;70779;52.506;5.492;2023-07-31T10:27:26;6.20;;;1.98;;
81310;SDS011;70779;52.506;5.492;2023-07-31T10:29:54;6.35;;;1.33;;
81310;SDS011;70779;52.506;5.492;2023-07-31T10:32:21;7.25;;;1.30;;
81310;SDS011;70779;52.506;5.492;2023-07-31T10:34:49;8.85;;;1.23;;
81310;SDS011;70779;52.506;5.492;2023-07-31T10:39:46;5.00;;;0.93;;
81310;SDS011;70779;52.506;5.492;2023-07-31T10:42:28;5.43;;;1.02;;
81310;SDS011;70779;52.506;5.492;2023-07-31T10:44:59;5.13;;;1.38;;
81310;SDS011;70779;52.506;5.492;2023-07-31T10:47:27;7.15;;;1.42;;
81310;SDS011;70779;52.506;5.492;2023-07-31T10:50:10;9.63;;;1.55;;
81310;SDS011;70779;52.506;5.492;2023-07-31T10:52:39;4.13;;;1.15;;
81310;SDS011;70779;52.506;5.492;2023-07-31T10:57:56;9.85;;;2.00;;
81310;SDS011;70779;52.506;5.492;2023-07-31T11:00:43;8.38;;;1.10;;
81310;SDS011;70779;52.506;5.492;2023-07-31T11:03:10;9.20;;;1.52;;
81310;SDS011;70779;52.506;5.492;2023-07-31T11:08:22;7.68;;;1.50;;
81310;SDS011;70779;52.506;5.492;2023-07-31T11:10:50;11.40;;;1.95;;
81310;SDS011;70779;52.506;5.492;2023-07-31T11:13:46;10.50;;;2.03;;
81310;SDS011;70779;52.506;5.492;2023-07-31T11:16:21;6.32;;;1.50;;
81310;SDS011;70779;52.506;5.492;2023-07-31T11:18:48;8.25;;;1.40;;
81310;SDS011;70779;52.506;5.492;2023-07-31T11:21:17;5.93;;;1.23;;
81310;SDS011;70779;52.506;5.492;2023-07-31T11:23:47;8.10;;;1.60;;
81310;SDS011;70779;52.506;5.492;2023-07-31T11:26:14;8.18;;;2.20;;
81310;SDS011;70779;52.506;5.492;2023-07-31T11:28:41;6.18;;;1.33;;
81310;SDS011;70779;52.506;5.492;2023-07-31T11:31:10;8.00;;;1.60;;
81310;SDS011;70779;52.506;5.492;2023-07-31T11:33:36;8.18;;;1.60;;
81310;SDS011;70779;52.506;5.492;2023-07-31T11:36:03;3.20;;;1.15;;
81310;SDS011;70779;52.506;5.492;2023-07-31T11:38:33;4.70;;;1.40;;
81310;SDS011;70779;52.506;5.492;2023-07-31T11:41:00;7.03;;;1.55;;
81310;SDS011;70779;52.506;5.492;2023-07-31T11:43:28;11.40;;;1.95;;
81310;SDS011;70779;52.506;5.492;2023-07-31T11:45:56;7.80;;;1.73;;
81310;SDS011;70779;52.506;5.492;2023-07-31T11:48:29;5.95;;;1.35;;
81310;SDS011;70779;52.506;5.492;2023-07-31T11:50:59;8.77;;;1.63;;
81310;SDS011;70779;52.506;5.492;2023-07-31T11:55:59;6.88;;;1.70;;
81310;SDS011;70779;52.506;5.492;2023-07-31T11:58:30;7.43;;;1.55;;
81310;SDS011;70779;52.506;5.492;2023-07-31T12:00:58;9.55;;;1.73;;
81310;SDS011;70779;52.506;5.492;2023-07-31T12:03:25;7.28;;;1.60;;
81310;SDS011;70779;52.506;5.492;2023-07-31T12:05:54;8.88;;;1.77;;
81310;SDS011;70779;52.506;5.492;2023-07-31T12:08:21;8.90;;;1.65;;
81310;SDS011;70779;52.506;5.492;2023-07-31T12:10:52;8.00;;;1.92;;
81310;SDS011;70779;52.506;5.492;2023-07-31T12:13:20;4.75;;;1.40;;
81310;SDS011;70779;52.506;5.492;2023-07-31T12:15:48;5.50;;;1.50;;
81310;SDS011;70779;52.506;5.492;2023-07-31T12:18:15;6.65;;;2.03;;
81310;SDS011;70779;52.506;5.492;2023-07-31T12:20:45;5.68;;;1.58;;
81310;SDS011;70779;52.506;5.492;2023-07-31T12:23:14;8.25;;;1.45;;
81310;SDS011;70779;52.506;5.492;2023-07-31T12:25:42;5.57;;;1.70;;
81310;SDS011;70779;52.506;5.492;2023-07-31T12:28:08;5.70;;;1.40;;
81310;SDS011;70779;52.506;5.492;2023-07-31T12:30:38;7.30;;;1.90;;
81310;SDS011;70779;52.506;5.492;2023-07-31T12:33:14;5.32;;;1.52;;
81310;SDS011;70779;52.506;5.492;2023-07-31T12:35:42;4.18;;;1.90;;
81310;SDS011;70779;52.506;5.492;2023-07-31T12:38:12;5.55;;;1.55;;
81310;SDS011;70779;52.506;5.492;2023-07-31T12:40:41;4.20;;;1.27;;
81310;SDS011;70779;52.506;5.492;2023-07-31T12:43:07;8.00;;;1.63;;
81310;SDS011;70779;52.506;5.492;2023-07-31T12:45:34;9.07;;;1.75;;
81310;SDS011;70779;52.506;5.492;2023-07-31T12:48:01;6.53;;;1.75;;
81310;SDS011;70779;52.506;5.492;2023-07-31T12:50:27;11.27;;;2.03;;
81310;SDS011;70779;52.506;5.492;2023-07-31T12:52:53;4.20;;;1.70;;
81310;SDS011;70779;52.506;5.492;2023-07-31T12:55:21;5.22;;;1.73;;
81310;SDS011;70779;52.506;5.492;2023-07-31T12:57:47;5.28;;;1.60;;
81310;SDS011;70779;52.506;5.492;2023-07-31T13:00:13;11.57;;;1.95;;
81310;SDS011;70779;52.506;5.492;2023-07-31T13:02:40;7.82;;;1.85;;
81310;SDS011;70779;52.506;5.492;2023-07-31T13:05:06;4.97;;;1.23;;
81310;SDS011;70779;52.506;5.492;2023-07-31T13:07:32;12.32;;;1.88;;
81310;SDS011;70779;52.506;5.492;2023-07-31T13:09:58;7.65;;;1.70;;
81310;SDS011;70779;52.506;5.492;2023-07-31T13:12:24;5.95;;;1.40;;
81310;SDS011;70779;52.506;5.492;2023-07-31T13:14:51;6.70;;;1.60;;
81310;SDS011;70779;52.506;5.492;2023-07-31T13:17:17;5.47;;;1.40;;
81310;SDS011;70779;52.506;5.492;2023-07-31T13:19:43;6.35;;;1.48;;
81310;SDS011;70779;52.506;5.492;2023-07-31T13:22:09;7.25;;;2.00;;
81310;SDS011;70779;52.506;5.492;2023-07-31T13:24:36;6.38;;;1.33;;
81310;SDS011;70779;52.506;5.492;2023-07-31T13:27:02;4.75;;;1.40;;
81310;SDS011;70779;52.506;5.492;2023-07-31T13:29:28;6.03;;;1.52;;
81310;SDS011;70779;52.506;5.492;2023-07-31T13:31:55;5.28;;;1.17;;
81310;SDS011;70779;52.506;5.492;2023-07-31T13:34:21;7.75;;;1.48;;
81310;SDS011;70779;52.506;5.492;2023-07-31T13:36:47;6.20;;;1.40;;
81310;SDS011;70779;52.506;5.492;2023-07-31T13:39:13;4.65;;;1.35;;
81310;SDS011;70779;52.506;5.492;2023-07-31T13:41:40;4.57;;;1.50;;
81310;SDS011;70779;52.506;5.492;2023-07-31T13:44:06;6.75;;;1.13;;
81310;SDS011;70779;52.506;5.492;2023-07-31T13:46:32;7.38;;;1.33;;
81310;SDS011;70779;52.506;5.492;2023-07-31T13:48:58;7.38;;;1.38;;
81310;SDS011;70779;52.506;5.492;2023-07-31T13:51:25;4.47;;;1.30;;
81310;SDS011;70779;52.506;5.492;2023-07-31T13:53:53;5.68;;;1.35;;
81310;SDS011;70779;52.506;5.492;2023-07-31T13:56:19;6.88;;;1.33;;
81310;SDS011;70779;52.506;5.492;2023-07-31T13:58:45;5.97;;;1.67;;
81310;SDS011;70779;52.506;5.492;2023-07-31T14:01:11;3.85;;;1.33;;
81310;SDS011;70779;52.506;5.492;2023-07-31T14:03:37;2.72;;;1.02;;
81310;SDS011;70779;52.506;5.492;2023-07-31T14:06:03;6.20;;;1.15;;
81310;SDS011;70779;52.506;5.492;2023-07-31T14:08:29;4.80;;;1.23;;
81310;SDS011;70779;52.506;5.492;2023-07-31T14:10:56;5.22;;;0.95;;
81310;SDS011;70779;52.506;5.492;2023-07-31T14:13:22;4.93;;;1.92;;
81310;SDS011;70779;52.506;5.492;2023-07-31T14:15:48;5.38;;;1.13;;
81310;SDS011;70779;52.506;5.492;2023-07-31T14:18:14;3.92;;;1.10;;
81310;SDS011;70779;52.506;5.492;2023-07-31T14:20:40;4.03;;;0.93;;
81310;SDS011;70779;52.506;5.492;2023-07-31T14:23:07;5.55;;;1.30;;
81310;SDS011;70779;52.506;5.492;2023-07-31T14:25:33;3.72;;;1.23;;
81310;SDS011;70779;52.506;5.492;2023-07-31T14:27:59;5.57;;;1.25;;
81310;SDS011;70779;52.506;5.492;2023-07-31T14:30:25;6.13;;;1.40;;
81310;SDS011;70779;52.506;5.492;2023-07-31T14:32:51;6.70;;;1.25;;
81310;SDS011;70779;52.506;5.492;2023-07-31T14:35:17;3.58;;;1.08;;
81310;SDS011;70779;52.506;5.492;2023-07-31T14:37:44;6.50;;;1.23;;
81310;SDS011;70779;52.506;5.492;2023-07-31T14:40:11;3.75;;;1.27;;
81310;SDS011;70779;52.506;5.492;2023-07-31T14:42:38;4.65;;;1.92;;
81310;SDS011;70779;52.506;5.492;2023-07-31T14:45:05;5.43;;;1.60;;
81310;SDS011;70779;52.506;5.492;2023-07-31T14:47:32;3.08;;;1.38;;
81310;SDS011;70779;52.506;5.492;2023-07-31T14:49:59;6.53;;;1.20;;
81310;SDS011;70779;52.506;5.492;2023-07-31T14:52:25;3.75;;;1.23;;
81310;SDS011;70779;52.506;5.492;2023-07-31T14:54:52;2.83;;;1.00;;
81310;SDS011;70779;52.506;5.492;2023-07-31T14:57:18;3.17;;;1.30;;